Malden, West Virginia
Current Conditions -  °F | °C
As of 11:54 PM on Wednesday 17 Dec 2014 (Local Time) from KCRW Reporting Station
Overcast Overcast  
Wind Chill: 28°   Ceiling: 2600
Heat Index: 33°   Visibility: 10mi
Dew Point: 24°   Wind: 6mph
Humidity: 70%   Direction: 310°NW
Pressure: 30.21"   Gusts: NA
Location:  38.3089°N, 81.5018°W
Report Text: KCRW 180454Z 31005KT 10SM OVC026 01/M04 A3021 RMK AO2 SLP237 T00061044 400610006
Loading
Personal Weather Stations






























Interactive Weather Map New forecast layout! Learn more

10-Day Weather Forecast

Advertisements
Track Severe Weather on mobile